Time;durP1;ratioP1;P1;durP2;ratioP2;P2;SDS_P1;SDS_P2;PMS_P1;PMS_P2;Temp;Humidity;BMP_temperature;BMP_pressure;BME280_temperature;BME280_humidity;BME280_pressure;Samples;Min_cycle;Max_cycle;Signal;HPM_P1;HPM_P2
2023/10/16 00:01:09;;;;;;;;;;;;;;;8.06;71.69;101437.25;4217542;28;20014;-70
2023/10/16 00:03:12;;;;;;;;;;;;;;;8.06;71.67;101439.94;4219747;28;19965;-68
2023/10/16 00:05:18;;;;;;;;;;;;;;;8.01;71.45;101443.06;4219435;28;20062;-70
2023/10/16 00:07:21;;;;;;;;;;;;;;;8.00;71.83;101437.81;4219644;28;20027;-70
2023/10/16 00:09:22;;;;;;;;;;;;;;;7.98;71.99;101435.28;4219021;28;20342;-70
2023/10/16 00:11:24;;;;;;;;;;;;;;;8.00;72.07;101443.19;4219011;28;20470;-70
2023/10/16 00:13:27;;;;;;;;;;;;;;;7.97;71.89;101447.00;4217916;28;20030;-70
2023/10/16 00:15:30;;;;;;;;;;;;;;;7.96;72.06;101439.91;4219731;28;20023;-70
2023/10/16 00:17:33;;;;;;;;;;;;;;;7.98;72.05;101445.16;4220184;28;20022;-70
2023/10/16 00:19:37;;;;;;;;;;;;;;;7.92;71.93;101439.38;4219065;28;20031;-70
2023/10/16 00:21:43;;;;;;;;;;;;;;;7.95;72.37;101440.94;4219168;28;20103;-70
2023/10/16 00:23:46;;;;;;;;;;;;;;;7.90;72.20;101443.22;4219248;28;19930;-69
2023/10/16 00:25:50;;;;;;;;;;;;;;;7.91;72.25;101434.97;4219857;28;20023;-69
2023/10/16 00:27:52;;;;;;;;;;;;;;;7.86;72.08;101426.50;4219246;28;20399;-70
2023/10/16 00:29:56;;;;;;;;;;;;;;;7.83;72.37;101436.69;4217755;28;20407;-70
2023/10/16 00:32:00;;;;;;;;;;;;;;;7.81;72.45;101444.06;4216993;28;20353;-70
2023/10/16 00:34:03;;;;;;;;;;;;;;;7.81;72.71;101439.53;4219943;28;20027;-71
2023/10/16 00:36:05;;;;;;;;;;;;;;;7.80;72.76;101445.03;4219726;28;20106;-70
2023/10/16 00:38:12;;;;;;;;;;;;;;;7.81;72.62;101444.06;4219861;28;20028;-70
2023/10/16 00:40:26;;;;;;;;;;;;;;;7.78;72.64;101438.97;4218031;28;20051;-70
2023/10/16 00:42:29;;;;;;;;;;;;;;;7.78;72.75;101434.44;4218964;28;20370;-71
2023/10/16 00:44:34;;;;;;;;;;;;;;;7.74;72.79;101439.25;4217689;28;19928;-70
2023/10/16 00:46:38;;;;;;;;;;;;;;;7.73;72.97;101444.75;4219048;28;20023;-68
2023/10/16 00:48:40;;;;;;;;;;;;;;;7.72;72.74;101448.44;4218530;28;20422;-70
2023/10/16 00:50:42;;;;;;;;;;;;;;;7.71;72.82;101452.97;4218720;28;20026;-70
2023/10/16 00:52:44;;;;;;;;;;;;;;;7.67;72.88;101451.53;4216796;28;20018;-70
2023/10/16 00:54:46;;;;;;;;;;;;;;;7.63;73.37;101449.28;4219531;28;20018;-70
2023/10/16 00:56:49;;;;;;;;;;;;;;;7.65;73.34;101449.97;4217145;28;20018;-70
2023/10/16 00:58:51;;;;;;;;;;;;;;;7.62;73.15;101445.75;4217044;28;20014;-68
2023/10/16 01:00:57;;;;;;;;;;;;;;;7.57;73.38;101451.53;4197257;28;20344;-69
2023/10/16 01:03:04;;;;;;;;;;;;;;;7.60;73.57;101452.25;4200366;28;20050;-70
2023/10/16 01:05:07;;;;;;;;;;;;;;;7.56;73.71;101455.22;4219302;28;20421;-68
2023/10/16 01:07:09;;;;;;;;;;;;;;;7.55;73.52;101450.84;4217684;28;20014;-68
2023/10/16 01:09:12;;;;;;;;;;;;;;;7.55;73.72;101447.28;4219096;28;20010;-70
2023/10/16 01:11:15;;;;;;;;;;;;;;;7.52;73.85;101439.50;4217625;28;20026;-70
2023/10/16 01:13:17;;;;;;;;;;;;;;;7.53;73.97;101447.41;4216280;28;20419;-70
2023/10/16 01:15:18;;;;;;;;;;;;;;;7.54;74.48;101448.28;4200203;28;20011;-70
2023/10/16 01:17:29;;;;;;;;;;;;;;;7.52;74.39;101445.75;4222012;28;20840;-71
2023/10/16 01:19:33;;;;;;;;;;;;;;;7.52;74.75;101448.44;4220892;28;20103;-69
2023/10/16 01:21:34;;;;;;;;;;;;;;;7.51;74.65;101444.03;4219509;28;20022;-71
2023/10/16 01:23:37;;;;;;;;;;;;;;;7.54;74.44;101442.91;4220503;28;20019;-70
2023/10/16 01:25:38;;;;;;;;;;;;;;;7.52;74.36;101444.88;4223157;28;20470;-71
2023/10/16 01:27:42;;;;;;;;;;;;;;;7.50;74.33;101445.00;4237156;27;20101;-70
2023/10/16 01:29:44;;;;;;;;;;;;;;;7.50;74.54;101445.00;4221867;28;20018;-69
2023/10/16 01:31:51;;;;;;;;;;;;;;;7.48;74.45;101444.31;4219703;28;20010;-68
2023/10/16 01:33:54;;;;;;;;;;;;;;;7.50;74.30;101449.53;4220207;28;19986;-70
2023/10/16 01:35:57;;;;;;;;;;;;;;;7.45;74.58;101447.28;4219544;28;20019;-70
2023/10/16 01:38:00;;;;;;;;;;;;;;;7.44;74.41;101442.03;4219642;28;20019;-70
2023/10/16 01:40:21;;;;;;;;;;;;;;;7.44;74.49;101442.88;4221519;28;19924;-69
2023/10/16 01:42:23;;;;;;;;;;;;;;;7.45;74.45;101446.44;4220699;28;20007;-70
2023/10/16 01:44:26;;;;;;;;;;;;;;;7.40;74.47;101439.63;4221540;28;20015;-71
2023/10/16 01:46:29;;;;;;;;;;;;;;;7.40;74.81;101441.47;4222317;28;20386;-70
2023/10/16 01:48:31;;;;;;;;;;;;;;;7.39;74.76;101435.22;4221431;28;20031;-69
2023/10/16 01:50:33;;;;;;;;;;;;;;;7.36;74.83;101438.19;4221077;28;20018;-71
2023/10/16 01:52:34;;;;;;;;;;;;;;;7.35;74.68;101432.97;4220965;28;20040;-70
2023/10/16 01:54:37;;;;;;;;;;;;;;;7.34;74.69;101442.03;4220540;28;20010;-70
2023/10/16 01:56:44;;;;;;;;;;;;;;;7.29;74.65;101444.25;4220215;28;20018;-69
2023/10/16 01:58:47;;;;;;;;;;;;;;;7.27;74.92;101438.19;4219929;28;20040;-69
2023/10/16 02:00:48;;;;;;;;;;;;;;;7.26;75.19;101442.72;4203187;28;20039;-69
2023/10/16 02:02:50;;;;;;;;;;;;;;;7.25;75.12;101442.84;4218167;28;20557;-69
2023/10/16 02:04:52;;;;;;;;;;;;;;;7.22;75.10;101443.97;4221980;28;20023;-69
2023/10/16 02:06:54;;;;;;;;;;;;;;;7.21;75.47;101437.75;4219218;28;19928;-69
2023/10/16 02:08:56;;;;;;;;;;;;;;;7.18;75.25;101451.47;4221396;28;20002;-69
2023/10/16 02:10:58;;;;;;;;;;;;;;;7.18;75.48;101453.31;4219653;28;20022;-69
2023/10/16 02:13:03;;;;;;;;;;;;;;;7.18;75.44;101456.00;4236979;27;20022;-69
2023/10/16 02:15:07;;;;;;;;;;;;;;;7.16;75.73;101458.81;4218522;28;20505;-69
2023/10/16 02:17:18;;;;;;;;;;;;;;;7.14;75.63;101452.72;4221691;28;20022;-69
2023/10/16 02:19:20;;;;;;;;;;;;;;;7.13;75.50;101451.03;4219682;28;20039;-68
2023/10/16 02:21:22;;;;;;;;;;;;;;;7.13;75.67;101452.84;4219446;28;20015;-69
2023/10/16 02:23:29;;;;;;;;;;;;;;;7.12;76.01;101440.44;4221408;28;20011;-69
2023/10/16 02:25:32;;;;;;;;;;;;;;;7.10;75.77;101450.44;4203358;28;19954;-69
2023/10/16 02:27:34;;;;;;;;;;;;;;;7.08;76.04;101447.88;4220960;28;19927;-68
2023/10/16 02:29:39;;;;;;;;;;;;;;;7.07;75.84;101448.91;4221148;28;20023;-69
2023/10/16 02:31:41;;;;;;;;;;;;;;;7.10;76.09;101456.69;4202222;28;20019;-69
2023/10/16 02:33:46;;;;;;;;;;;;;;;7.09;75.83;101451.44;4220864;28;20010;-69
2023/10/16 02:35:48;;;;;;;;;;;;;;;7.06;76.02;101449.88;4236486;27;20010;-69
2023/10/16 02:37:53;;;;;;;;;;;;;;;7.05;75.87;101464.28;4220882;28;20437;-69
2023/10/16 02:39:55;;;;;;;;;;;;;;;7.06;76.24;101455.25;4221932;28;20446;-69
2023/10/16 02:41:56;;;;;;;;;;;;;;;7.04;76.14;101454.53;4221071;28;20023;-69
2023/10/16 02:43:58;;;;;;;;;;;;;;;7.01;75.99;101452.97;4218388;28;20015;-69
2023/10/16 02:46:03;;;;;;;;;;;;;;;7.03;76.16;101459.03;4220400;28;20433;-69
2023/10/16 02:48:09;;;;;;;;;;;;;;;7.02;76.52;101460.06;4220328;28;19928;-69
2023/10/16 02:50:14;;;;;;;;;;;;;;;6.96;76.42;101457.03;4202781;28;20023;-69
2023/10/16 02:52:17;;;;;;;;;;;;;;;6.98;76.41;101453.25;4221167;28;20011;-69
2023/10/16 02:54:18;;;;;;;;;;;;;;;6.96;76.64;101447.16;4220772;28;20022;-69
2023/10/16 02:56:22;;;;;;;;;;;;;;;6.93;76.79;101452.81;4221842;28;19924;-70
2023/10/16 02:58:23;;;;;;;;;;;;;;;6.92;76.57;101450.25;4234513;27;20003;-69
2023/10/16 03:00:34;;;;;;;;;;;;;;;6.93;76.81;101450.13;4219735;28;20368;-70
2023/10/16 03:02:39;;;;;;;;;;;;;;;6.92;76.87;101447.56;4220150;28;20042;-69
2023/10/16 03:04:43;;;;;;;;;;;;;;;6.91;76.88;101446.72;4218876;28;20030;-69
2023/10/16 03:06:48;;;;;;;;;;;;;;;6.93;76.77;101449.25;4219733;28;20018;-68
2023/10/16 03:08:50;;;;;;;;;;;;;;;6.89;76.74;101447.84;4218836;28;20358;-69
2023/10/16 03:10:51;;;;;;;;;;;;;;;6.90;76.92;101446.88;4202630;28;20019;-69
2023/10/16 03:12:56;;;;;;;;;;;;;;;6.85;76.98;101450.78;4214490;28;20015;-68
2023/10/16 03:15:00;;;;;;;;;;;;;;;6.85;77.01;101453.47;4218963;28;20019;-68
2023/10/16 03:17:10;;;;;;;;;;;;;;;6.86;76.87;101459.69;4233842;27;20015;-69
2023/10/16 03:19:16;;;;;;;;;;;;;;;6.84;77.13;101465.19;4203224;28;20019;-69
2023/10/16 03:21:31;;;;;;;;;;;;;;;6.84;77.14;101462.50;4219193;28;20022;-69
2023/10/16 03:23:32;;;;;;;;;;;;;;;6.80;76.97;101461.09;4235281;27;20010;-69
2023/10/16 03:27:50;;;;;;;;;;;;;;;6.77;77.22;101456.00;4217266;28;20015;-69
2023/10/16 03:29:52;;;;;;;;;;;;;;;6.77;77.35;101463.19;4219516;28;19962;-69
2023/10/16 03:31:56;;;;;;;;;;;;;;;6.75;77.29;101462.47;4218838;28;20018;-69
2023/10/16 03:33:59;;;;;;;;;;;;;;;6.74;77.61;101468.81;4217196;28;20026;-69
2023/10/16 03:36:02;;;;;;;;;;;;;;;6.73;77.82;101462.59;4218909;28;20026;-69
2023/10/16 03:38:10;;;;;;;;;;;;;;;6.74;77.76;101463.44;4220002;28;20030;-69
2023/10/16 03:40:14;;;;;;;;;;;;;;;6.71;77.77;101469.09;4218715;28;20428;-69
2023/10/16 03:42:17;;;;;;;;;;;;;;;6.72;78.13;101465.44;4218870;28;20027;-69
2023/10/16 03:44:21;;;;;;;;;;;;;;;6.72;77.83;101468.94;4218775;28;20031;-69
2023/10/16 03:46:24;;;;;;;;;;;;;;;6.73;77.99;101473.34;4219283;28;20022;-69
2023/10/16 03:48:26;;;;;;;;;;;;;;;6.71;77.88;101471.78;4219141;28;20027;-68
2023/10/16 03:50:34;;;;;;;;;;;;;;;6.70;77.74;101467.41;4218888;28;20579;-68
2023/10/16 03:52:36;;;;;;;;;;;;;;;6.70;77.66;101470.09;4219550;28;20027;-70
2023/10/16 03:54:41;;;;;;;;;;;;;;;6.71;77.56;101463.72;4219785;28;20014;-69
2023/10/16 03:56:44;;;;;;;;;;;;;;;6.70;77.85;101460.19;4217953;28;20018;-69
2023/10/16 03:58:46;;;;;;;;;;;;;;;6.66;77.66;101464.13;4218545;28;20019;-69
2023/10/16 04:00:56;;;;;;;;;;;;;;;6.66;77.69;101459.63;4216848;28;19924;-69
2023/10/16 04:02:59;;;;;;;;;;;;;;;6.63;77.82;101462.56;4217264;28;20058;-69
2023/10/16 04:05:05;;;;;;;;;;;;;;;6.60;77.93;101468.19;4219978;28;20031;-69
2023/10/16 04:07:10;;;;;;;;;;;;;;;6.58;77.96;101458.56;4220161;28;20361;-69
2023/10/16 04:09:14;;;;;;;;;;;;;;;6.59;77.86;101462.97;4219781;28;20023;-69
2023/10/16 04:11:15;;;;;;;;;;;;;;;6.57;77.76;101459.56;4218756;28;19930;-69
2023/10/16 04:13:18;;;;;;;;;;;;;;;6.52;77.74;101459.97;4217738;28;20022;-69
2023/10/16 04:15:24;;;;;;;;;;;;;;;6.52;77.87;101467.16;4217833;28;20456;-69
2023/10/16 04:17:32;;;;;;;;;;;;;;;6.48;77.96;101466.56;4220372;28;20011;-69
2023/10/16 04:19:36;;;;;;;;;;;;;;;6.45;78.09;101459.63;4216071;28;20011;-69
2023/10/16 04:21:37;;;;;;;;;;;;;;;6.44;78.12;101465.13;4218261;28;20022;-69
2023/10/16 04:23:52;;;;;;;;;;;;;;;6.42;78.20;101461.75;4219113;28;19973;-69
2023/10/16 04:26:28;;;;;;;;;;;;;;;6.40;78.38;101459.19;4218275;28;20007;-69
2023/10/16 04:28:29;;;;;;;;;;;;;;;6.37;78.59;101456.78;4218165;28;20019;-69
2023/10/16 04:30:39;;;;;;;;;;;;;;;6.34;78.77;101453.50;4218452;28;20027;-69
2023/10/16 04:32:56;;;;;;;;;;;;;;;6.36;78.81;101457.75;4217999;28;19935;-69
2023/10/16 04:35:03;;;;;;;;;;;;;;;6.35;78.59;101456.06;4220088;28;20363;-69
2023/10/16 04:46:57;;;;;;;;;;;;;;;6.24;78.99;101467.72;4215703;28;20059;-69
2023/10/16 04:48:58;;;;;;;;;;;;;;;6.22;78.99;101466.13;4217926;28;20581;-69
2023/10/16 04:51:09;;;;;;;;;;;;;;;6.23;78.76;101459.78;4219020;28;20018;-69
2023/10/16 04:53:12;;;;;;;;;;;;;;;6.21;78.99;101459.06;4221423;28;20039;-69
2023/10/16 04:55:23;;;;;;;;;;;;;;;6.19;78.89;101455.66;4220441;28;20026;-69
2023/10/16 04:57:47;;;;;;;;;;;;;;;6.17;78.99;101452.25;4222307;28;20011;-69
2023/10/16 05:00:00;;;;;;;;;;;;;;;6.12;78.94;101458.03;4222443;28;20039;-69
2023/10/16 05:02:11;;;;;;;;;;;;;;;6.08;79.31;101462.81;4220737;28;20888;-69
2023/10/16 05:04:49;;;;;;;;;;;;;;;6.05;79.34;101460.38;4221553;28;20011;-69
2023/10/16 05:06:49;;;;;;;;;;;;;;;5.98;79.38;101452.97;4221990;28;20364;-69
2023/10/16 05:09:53;;;;;;;;;;;;;;;6.00;79.68;101464.41;4221654;28;20026;-69
2023/10/16 05:11:27;;;;;;;;;;;;;;;5.98;79.97;101466.38;4221957;28;20334;-68
2023/10/16 05:13:39;;;;;;;;;;;;;;;5.95;79.95;101467.44;4221996;28;19953;-68
2023/10/16 05:16:28;;;;;;;;;;;;;;;5.95;79.86;101470.13;4221093;28;20022;-69
2023/10/16 05:18:31;;;;;;;;;;;;;;;5.93;79.77;101474.78;4221792;28;20385;-69
2023/10/16 06:14:11;;;;;;;;;;;;;;;5.73;81.34;101497.88;4220487;28;20031;-68
2023/10/16 06:16:18;;;;;;;;;;;;;;;5.72;81.50;101507.75;4219905;28;19932;-69
2023/10/16 06:18:22;;;;;;;;;;;;;;;5.72;81.92;101507.75;4220671;28;20433;-68
2023/10/16 06:20:25;;;;;;;;;;;;;;;5.73;82.47;101511.28;4218830;28;20015;-68
2023/10/16 06:22:27;;;;;;;;;;;;;;;5.75;82.61;101512.88;4220716;28;20018;-69
2023/10/16 06:24:32;;;;;;;;;;;;;;;5.78;82.47;101509.06;4219840;28;20011;-68
2023/10/16 06:26:34;;;;;;;;;;;;;;;5.81;82.51;101513.34;4217732;28;20014;-68
2023/10/16 06:28:47;;;;;;;;;;;;;;;5.79;82.58;101513.47;4219322;28;20010;-69
2023/10/16 06:30:50;;;;;;;;;;;;;;;5.81;82.69;101507.97;4219100;28;20084;-69
2023/10/16 06:32:52;;;;;;;;;;;;;;;5.81;82.60;101513.34;4219155;28;20046;-68
2023/10/16 06:35:00;;;;;;;;;;;;;;;5.80;82.50;101509.81;4221119;28;19963;-69
2023/10/16 06:37:05;;;;;;;;;;;;;;;5.84;82.65;101508.56;4220580;28;19932;-69
2023/10/16 06:39:19;;;;;;;;;;;;;;;5.86;82.50;101503.94;4220195;28;20015;-69
2023/10/16 06:41:22;;;;;;;;;;;;;;;5.91;82.54;101506.25;4221185;28;20462;-69
2023/10/16 06:43:26;;;;;;;;;;;;;;;5.92;82.68;101511.47;4220681;28;20030;-69
2023/10/16 06:45:40;;;;;;;;;;;;;;;5.94;82.52;101514.88;4220971;28;20446;-68
2023/10/16 06:47:47;;;;;;;;;;;;;;;5.94;82.64;101512.19;4221046;28;20018;-68
2023/10/16 06:49:49;;;;;;;;;;;;;;;5.97;82.83;101521.81;4220908;28;20047;-69
2023/10/16 06:51:52;;;;;;;;;;;;;;;5.99;82.90;101521.69;4220369;28;20062;-68
2023/10/16 06:53:56;;;;;;;;;;;;;;;6.01;82.99;101525.97;4219626;28;20143;-69
2023/10/16 06:55:58;;;;;;;;;;;;;;;6.02;82.71;101527.69;4220066;28;20014;-69
2023/10/16 06:57:59;;;;;;;;;;;;;;;6.06;82.86;101528.25;4220239;28;19924;-68
2023/10/16 07:00:08;;;;;;;;;;;;;;;6.08;82.78;101527.16;4219470;28;19928;-68
2023/10/16 07:02:15;;;;;;;;;;;;;;;6.07;83.05;101522.78;4217590;28;20015;-69
2023/10/16 07:04:19;;;;;;;;;;;;;;;6.15;82.96;101519.44;4219951;28;20027;-68
2023/10/16 07:06:24;;;;;;;;;;;;;;;6.17;82.85;101528.22;4220254;28;20010;-69
2023/10/16 07:08:27;;;;;;;;;;;;;;;6.19;82.67;101526.28;4219246;28;20023;-69
2023/10/16 07:10:29;;;;;;;;;;;;;;;6.21;82.78;101523.47;4219480;28;20090;-69
2023/10/16 07:12:50;;;;;;;;;;;;;;;6.24;83.00;101529.41;4220543;28;19970;-69
2023/10/16 07:14:56;;;;;;;;;;;;;;;6.26;82.91;101523.91;4219833;28;20018;-69
2023/10/16 07:16:58;;;;;;;;;;;;;;;6.28;83.14;101527.31;4220122;28;20011;-69
2023/10/16 07:19:00;;;;;;;;;;;;;;;6.32;83.15;101540.34;4219286;28;19928;-69
2023/10/16 07:21:08;;;;;;;;;;;;;;;6.35;83.00;101523.13;4219222;28;20014;-69
2023/10/16 07:23:11;;;;;;;;;;;;;;;6.38;83.28;101519.31;4220190;28;20031;-69
2023/10/16 07:25:24;;;;;;;;;;;;;;;6.42;83.32;101523.44;4218645;28;20571;-69
2023/10/16 07:27:30;;;;;;;;;;;;;;;6.44;83.12;101522.34;4219386;28;20029;-69
2023/10/16 07:29:35;;;;;;;;;;;;;;;6.46;82.94;101524.91;4219275;28;20032;-68
2023/10/16 07:31:37;;;;;;;;;;;;;;;6.49;83.11;101527.34;4218642;28;20449;-68
2023/10/16 07:33:41;;;;;;;;;;;;;;;6.54;83.30;101524.25;4219817;28;20011;-69
2023/10/16 07:35:44;;;;;;;;;;;;;;;6.57;83.56;101521.31;4219551;28;20027;-69
2023/10/16 07:37:48;;;;;;;;;;;;;;;6.62;83.16;101536.00;4201127;28;20469;-69
2023/10/16 07:39:50;;;;;;;;;;;;;;;6.68;83.20;101542.69;4218937;28;20103;-69
2023/10/16 07:41:55;;;;;;;;;;;;;;;6.71;83.36;101538.88;4217724;28;20374;-68
2023/10/16 07:43:56;;;;;;;;;;;;;;;6.75;83.19;101546.53;4218361;28;20015;-68
2023/10/16 07:46:16;;;;;;;;;;;;;;;6.80;82.98;101538.97;4218590;28;20031;-69
2023/10/16 07:48:20;;;;;;;;;;;;;;;6.83;82.88;101538.69;4219129;28;20473;-69
2023/10/16 07:50:22;;;;;;;;;;;;;;;6.89;83.06;101541.81;4218710;28;20027;-69
2023/10/16 07:52:28;;;;;;;;;;;;;;;6.93;82.89;101552.16;4218042;28;20469;-68
2023/10/16 07:54:30;;;;;;;;;;;;;;;6.97;82.96;101550.06;4217838;28;20568;-68
2023/10/16 07:56:32;;;;;;;;;;;;;;;7.03;82.92;101538.78;4219089;28;20019;-69
2023/10/16 07:58:47;;;;;;;;;;;;;;;7.08;82.86;101541.91;4218553;28;20022;-69
2023/10/16 08:00:59;;;;;;;;;;;;;;;7.15;82.64;101542.25;4218877;28;19927;-69
2023/10/16 08:03:05;;;;;;;;;;;;;;;7.22;82.76;101554.13;4218808;28;20019;-68
2023/10/16 08:05:15;;;;;;;;;;;;;;;7.29;82.52;101554.44;4218745;28;20055;-68
2023/10/16 08:07:18;;;;;;;;;;;;;;;7.33;82.62;101556.72;4219167;28;20481;-68
2023/10/16 08:09:29;;;;;;;;;;;;;;;7.39;82.48;101552.66;4219648;28;20353;-68
2023/10/16 08:11:33;;;;;;;;;;;;;;;7.45;82.33;101549.41;4218488;28;20027;-69
2023/10/16 08:13:36;;;;;;;;;;;;;;;7.50;81.71;101552.53;4219377;28;20039;-68
2023/10/16 08:15:38;;;;;;;;;;;;;;;7.57;81.27;101551.00;4219647;28;20481;-69
2023/10/16 08:17:39;;;;;;;;;;;;;;;7.63;81.30;101549.59;4215902;28;20388;-69
2023/10/16 08:19:42;;;;;;;;;;;;;;;7.67;81.10;101544.81;4217534;28;20031;-69
2023/10/16 08:21:44;;;;;;;;;;;;;;;7.76;80.42;101557.44;4219089;28;19934;-68
2023/10/16 08:23:46;;;;;;;;;;;;;;;7.85;80.05;101543.16;4218439;28;20018;-69
2023/10/16 08:25:48;;;;;;;;;;;;;;;7.89;79.14;101549.94;4218871;28;20019;-69
2023/10/16 08:27:50;;;;;;;;;;;;;;;7.98;78.99;101544.69;4222359;28;20023;-69
2023/10/16 08:29:54;;;;;;;;;;;;;;;8.04;78.63;101550.38;4222603;28;20020;-69
2023/10/16 08:32:48;;;;;;;;;;;;;;;8.15;77.52;101559.28;4221836;28;20785;-69
2023/10/16 08:34:19;;;;;;;;;;;;;;;8.20;76.80;101547.13;4221447;28;20045;-69
2023/10/16 08:36:20;;;;;;;;;;;;;;;8.28;76.02;101563.41;4220769;28;20015;-69
2023/10/16 08:38:25;;;;;;;;;;;;;;;8.37;75.37;101548.25;4222765;28;20031;-69
2023/10/16 08:40:32;;;;;;;;;;;;;;;8.45;74.73;101548.41;4222117;28;20030;-68
2023/10/16 08:42:36;;;;;;;;;;;;;;;8.53;74.15;101558.47;4222679;28;19960;-69
2023/10/16 08:44:38;;;;;;;;;;;;;;;8.60;73.20;101548.81;4222694;28;20030;-69
2023/10/16 08:46:44;;;;;;;;;;;;;;;8.68;72.88;101550.78;4222241;28;20014;-69
2023/10/16 08:48:48;;;;;;;;;;;;;;;8.76;72.29;101548.22;4221643;28;20360;-69
2023/10/16 08:50:58;;;;;;;;;;;;;;;8.84;72.06;101550.19;4222488;28;20015;-68
2023/10/16 08:53:05;;;;;;;;;;;;;;;8.94;72.07;101551.00;4222044;28;20750;-68
2023/10/16 08:55:15;;;;;;;;;;;;;;;9.03;71.35;101541.19;4220660;28;20035;-68
2023/10/16 08:57:19;;;;;;;;;;;;;;;9.11;71.35;101551.25;4222389;28;20026;-69
2023/10/16 08:59:21;;;;;;;;;;;;;;;9.19;71.04;101554.03;4222114;28;20023;-68
2023/10/16 09:01:23;;;;;;;;;;;;;;;9.29;70.47;101552.13;4221829;28;20034;-69
2023/10/16 09:03:26;;;;;;;;;;;;;;;9.36;70.13;101545.16;4221586;28;19924;-68
2023/10/16 09:05:29;;;;;;;;;;;;;;;9.43;70.03;101553.50;4222700;28;20000;-69
2023/10/16 09:07:34;;;;;;;;;;;;;;;9.50;69.93;101546.53;4221266;28;20399;-69
2023/10/16 09:09:41;;;;;;;;;;;;;;;9.57;69.42;101549.47;4219667;28;20425;-68
2023/10/16 09:11:44;;;;;;;;;;;;;;;9.63;69.38;101551.56;4221491;28;20353;-69
2023/10/16 09:13:50;;;;;;;;;;;;;;;9.69;68.85;101545.56;4221942;28;20020;-69
2023/10/16 09:15:52;;;;;;;;;;;;;;;9.77;69.02;101546.66;4222312;27;20401;-69
2023/10/16 09:17:54;;;;;;;;;;;;;;;9.81;68.74;101546.19;4221654;28;20421;-69
2023/10/16 09:19:58;;;;;;;;;;;;;;;9.87;68.53;101551.00;4221568;28;20481;-69
2023/10/16 09:22:03;;;;;;;;;;;;;;;9.92;68.32;101540.56;4221432;28;20018;-67
2023/10/16 09:24:07;;;;;;;;;;;;;;;10.00;68.17;101547.91;4222102;28;19935;-69
2023/10/16 09:26:10;;;;;;;;;;;;;;;10.06;67.79;101543.72;4220709;28;20342;-67
2023/10/16 09:28:16;;;;;;;;;;;;;;;10.12;67.75;101547.69;4221712;28;20010;-67
2023/10/16 09:30:23;;;;;;;;;;;;;;;10.19;67.49;101554.16;4221124;28;20487;-69
2023/10/16 09:32:27;;;;;;;;;;;;;;;10.25;67.12;101550.81;4221196;28;20003;-70
2023/10/16 09:34:28;;;;;;;;;;;;;;;10.31;66.88;101552.91;4222132;28;20026;-69
2023/10/16 09:36:36;;;;;;;;;;;;;;;10.38;66.77;101553.19;4222047;28;20426;-67
2023/10/16 09:38:42;;;;;;;;;;;;;;;10.43;66.33;101548.16;4221795;28;20024;-69
2023/10/16 09:40:45;;;;;;;;;;;;;;;10.49;66.06;101550.22;4220210;28;20346;-69
2023/10/16 09:42:49;;;;;;;;;;;;;;;10.55;66.22;101552.31;4221286;28;20024;-69
2023/10/16 09:44:59;;;;;;;;;;;;;;;10.61;66.01;101557.09;4222027;28;20475;-69
2023/10/16 09:47:00;;;;;;;;;;;;;;;10.67;65.85;101552.88;4220975;28;20018;-69
2023/10/16 09:49:05;;;;;;;;;;;;;;;10.71;65.52;101548.03;4222030;28;19964;-69
2023/10/16 09:51:12;;;;;;;;;;;;;;;10.80;65.23;101557.91;4221947;28;19979;-70
2023/10/16 09:53:17;;;;;;;;;;;;;;;10.84;65.26;101561.94;4221474;28;20024;-69
2023/10/16 09:55:19;;;;;;;;;;;;;;;10.89;64.96;101564.19;4220224;28;20086;-69
2023/10/16 09:57:23;;;;;;;;;;;;;;;10.93;64.64;101562.88;4221126;28;20018;-69
2023/10/16 09:59:26;;;;;;;;;;;;;;;10.96;64.27;101566.09;4220638;28;20019;-69
2023/10/16 10:01:30;;;;;;;;;;;;;;;11.00;64.23;101567.47;4220771;28;20019;-69
2023/10/16 10:03:32;;;;;;;;;;;;;;;11.02;64.03;101564.63;4219724;28;20023;-70
2023/10/16 10:05:41;;;;;;;;;;;;;;;11.03;64.01;101566.28;4221087;28;20714;-69
2023/10/16 10:07:48;;;;;;;;;;;;;;;11.05;63.64;101574.25;4220428;28;20465;-69
2023/10/16 10:09:53;;;;;;;;;;;;;;;11.05;63.77;101563.44;4219910;28;20042;-69
2023/10/16 10:12:08;;;;;;;;;;;;;;;11.05;63.43;101563.44;4221159;28;20015;-69
2023/10/16 10:14:26;;;;;;;;;;;;;;;11.06;63.40;101565.97;4221226;28;20014;-69
2023/10/16 10:16:29;;;;;;;;;;;;;;;11.08;63.48;101555.88;4220744;28;20010;-69
2023/10/16 10:18:42;;;;;;;;;;;;;;;11.09;63.55;101562.13;4221101;28;20022;-70
2023/10/16 10:20:44;;;;;;;;;;;;;;;11.12;63.31;101559.94;4219998;28;20015;-68
2023/10/16 10:22:47;;;;;;;;;;;;;;;11.12;63.54;101557.22;4220321;28;20010;-69
2023/10/16 10:24:51;;;;;;;;;;;;;;;11.17;63.44;101572.97;4220469;28;20026;-69
2023/10/16 10:26:55;;;;;;;;;;;;;;;11.20;63.28;101569.09;4220831;28;19953;-69
2023/10/16 10:29:09;;;;;;;;;;;;;;;11.23;63.11;101564.22;4220426;28;20011;-69
2023/10/16 10:31:12;;;;;;;;;;;;;;;11.27;63.13;101562.91;4220109;28;20014;-69
2023/10/16 10:33:15;;;;;;;;;;;;;;;11.31;63.11;101563.41;4220811;28;20031;-69
2023/10/16 10:35:26;;;;;;;;;;;;;;;11.34;63.10;101563.09;4220260;28;20011;-69
2023/10/16 10:37:44;;;;;;;;;;;;;;;11.36;62.63;101564.63;4220021;28;20010;-69
2023/10/16 10:39:47;;;;;;;;;;;;;;;11.40;62.71;101561.59;4220208;28;20015;-69
2023/10/16 10:41:48;;;;;;;;;;;;;;;11.41;62.59;101564.16;4219628;28;20026;-69
2023/10/16 10:43:58;;;;;;;;;;;;;;;11.43;62.46;101566.69;4220054;28;20015;-69
2023/10/16 10:46:00;;;;;;;;;;;;;;;11.43;62.25;101562.13;4220687;28;20043;-69
2023/10/16 10:48:09;;;;;;;;;;;;;;;11.44;62.22;101563.81;4221698;28;20684;-67
2023/10/16 10:50:14;;;;;;;;;;;;;;;11.44;62.03;101566.53;4219757;28;20023;-68
2023/10/16 10:52:16;;;;;;;;;;;;;;;11.45;61.92;101561.94;4220034;28;20493;-69
2023/10/16 10:54:23;;;;;;;;;;;;;;;11.44;61.91;101569.22;4219757;28;20031;-69
2023/10/16 10:56:38;;;;;;;;;;;;;;;11.43;61.83;101563.97;4220671;28;20034;-69
2023/10/16 10:58:40;;;;;;;;;;;;;;;11.44;61.92;101554.84;4220341;28;20010;-69
2023/10/16 11:00:49;;;;;;;;;;;;;;;11.43;61.91;101559.41;4220344;28;20050;-69
2023/10/16 11:03:05;;;;;;;;;;;;;;;11.44;61.80;101558.41;4220509;28;20035;-69
2023/10/16 11:05:22;;;;;;;;;;;;;;;11.45;61.80;101564.66;4220872;28;20023;-69
2023/10/16 11:07:26;;;;;;;;;;;;;;;11.47;61.35;101552.69;4220579;28;20027;-68
2023/10/16 11:09:33;;;;;;;;;;;;;;;11.49;61.35;101556.06;4218482;28;20488;-69
2023/10/16 11:11:39;;;;;;;;;;;;;;;11.52;61.38;101554.91;4219162;28;20011;-69
2023/10/16 11:13:44;;;;;;;;;;;;;;;11.54;61.43;101547.44;4219573;28;20350;-69
2023/10/16 11:15:48;;;;;;;;;;;;;;;11.56;61.24;101550.00;4220582;28;20480;-69
2023/10/16 11:17:52;;;;;;;;;;;;;;;11.58;60.92;101551.50;4219851;28;20022;-69
2023/10/16 11:19:54;;;;;;;;;;;;;;;11.59;60.84;101552.38;4219672;28;20022;-69
2023/10/16 11:22:00;;;;;;;;;;;;;;;11.60;61.00;101546.81;4220217;28;20465;-69
2023/10/16 11:24:05;;;;;;;;;;;;;;;11.61;60.90;101545.78;4219571;28;20007;-69
2023/10/16 11:26:12;;;;;;;;;;;;;;;11.63;60.81;101542.91;4219733;28;20019;-69
2023/10/16 11:28:17;;;;;;;;;;;;;;;11.63;60.54;101553.72;4219803;28;20018;-69
2023/10/16 11:30:18;;;;;;;;;;;;;;;11.63;60.35;101551.88;4219845;28;19935;-69
2023/10/16 11:32:25;;;;;;;;;;;;;;;11.62;60.46;101552.03;4219420;28;19932;-67
2023/10/16 11:34:29;;;;;;;;;;;;;;;11.61;60.39;101555.75;4219664;28;20011;-67
2023/10/16 11:36:33;;;;;;;;;;;;;;;11.59;60.19;101542.38;4220025;28;20010;-67
2023/10/16 11:38:36;;;;;;;;;;;;;;;11.58;60.42;101553.38;4219601;28;20015;-67
2023/10/16 11:40:42;;;;;;;;;;;;;;;11.54;60.44;101550.16;4217194;28;20026;-67
2023/10/16 11:42:44;;;;;;;;;;;;;;;11.53;60.33;101548.44;4217143;28;20010;-67
2023/10/16 11:44:46;;;;;;;;;;;;;;;11.51;60.30;101545.91;4218022;28;20472;-67
2023/10/16 11:46:52;;;;;;;;;;;;;;;11.51;60.34;101547.78;4219358;28;20014;-67
2023/10/16 11:48:56;;;;;;;;;;;;;;;11.51;60.43;101551.31;4218896;28;20122;-67
2023/10/16 11:51:06;;;;;;;;;;;;;;;11.48;60.80;101538.13;4218700;28;19934;-67
2023/10/16 11:53:08;;;;;;;;;;;;;;;11.48;60.78;101538.13;4218067;28;20006;-67
2023/10/16 11:55:10;;;;;;;;;;;;;;;11.48;60.62;101538.13;4218664;28;20023;-67
2023/10/16 11:57:13;;;;;;;;;;;;;;;11.49;60.59;101539.00;4218894;28;20022;-67